Aviation Digital Data Service (ADDS)

Output produced by METARs form (0746 UTC 24 May 2018)
found at http://www.aviationweather.gov/adds/metars/
 
KLAF 240525Z 2406/2506 VRB03KT P6SM FEW250 AMD LTD TO CLD VIS AND WIND TIL 241300
       
KLAL 240523Z 2406/2506 VRB03KT P6SM FEW250 
     FM241400 10005KT P6SM SCT020 BKN250 
     FM241800 12006KT P6SM VCTS SCT025CB BKN060 
     FM250200 VRB03KT P6SM SCT030 BKN200 AMD NOT SKED TIL 241100
       
KLAN 240530Z 2406/2506 VRB03KT P6SM BKN250 
     FM240900 00000KT 4SM BR SCT250 
     FM241300 19005KT P6SM SCT035 
     FM241700 22008KT P6SM SCT035 
     FM250000 VRB05KT P6SM SKC
       
KLAR 240520Z 2406/2506 22007KT P6SM SCT100 
     FM241600 24015G22KT P6SM SCT100 BKN250 
     FM250100 24010KT P6SM SCT250
       
KLAS 240520Z 2406/2512 20009KT P6SM SKC 
     FM241200 VRB05KT P6SM SKC 
     FM241600 07007KT P6SM SKC 
     FM241900 15009KT P6SM SKC 
     FM242300 16011G20KT P6SM SKC 
     FM250400 19012KT P6SM SKC
       
KLAX 240523Z 2406/2512 27007KT P6SM SCT015 
     FM240700 26006KT P6SM BKN025 
     FM241200 VRB03KT 6SM -DZ BR BKN015 OVC025 
     FM241700 25008KT P6SM SCT015 OVC025 
     FM242100 26015KT P6SM BKN035 
     FM250300 26010KT P6SM OVC025
       
KLBB 240531Z 2406/2506 17011KT P6SM BKN200
       
KLBE 240520Z 2406/2506 34004KT P6SM SKC 
     FM240900 00000KT 4SM BR SKC 
     FM241200 VRB03KT P6SM SKC
       
KLBF 240520Z 2406/2506 14010KT P6SM VCTS BKN200CB WS020/18040KT 
     FM240900 16007KT P6SM BKN130 
     FM241000 15007KT P6SM BKN130 
     FM241200 14005KT P6SM BKN200 
     FM241800 20006KT P6SM FEW250
       
KLBL 240520Z 2406/2506 16019KT P6SM OVC200 
     FM240900 18013KT P6SM BKN200
       
KLBT 240520Z 2406/2506 25005KT P6SM VCTS BKN080CB 
     FM241300 04005KT P6SM VCTS BKN070CB 
     FM241500 08009KT P6SM VCTS BKN090CB 
     FM250000 15005KT P6SM BKN100
       
KLCK 240540Z 2406/2506 06005KT P6SM FEW250 
     FM241400 09007KT P6SM SCT250 
     FM250000 VRB04KT P6SM SKC AMD NOT SKED
       
KLCH 240520Z 2406/2506 VRB03KT P6SM SCT250 
     FM241600 12006KT P6SM VCTS SCT025 OVC050CB 
     TEMPO 2420/2424 P6SM TSRA OVC025CB
       
KLEB 240523Z 2406/2506 00000KT P6SM SKC 
     TEMPO 2410/2412 5SM BR BKN007 
     FM241200 34005KT P6SM SKC 
     FM241600 34008G14KT P6SM SKC 
     FM250100 19004KT P6SM FEW250
       
KLEE 240520Z 2406/2506 VRB03KT P6SM FEW090 
     FM241400 13004KT P6SM FEW030 SCT250 
     FM241800 11008KT P6SM VCTS SCT035CB SCT070 BKN250 
     FM242200 10010KT P6SM SCT060 BKN120 
     FM250000 10006KT P6SM FEW060 BKN090 BKN250
       
KLEX 240533Z 2406/2506 06006KT P6SM FEW250
       
TAF KLFI 240100Z 2401/2507 VRB06KT 9999 FEW250 QNH2997INS 
     BECMG 2414/2415 04012KT 9999 SKC QNH3009INS 
     BECMG 2421/2422 VRB06KT 9999 SKC QNH3011INS TX29/2417Z TN18/2501Z
       
KLFK 240530Z 2406/2506 VRB03KT P6SM SCT150 
     TEMPO 2409/2413 5SM BR 
     FM241700 09004KT P6SM VCTS SCT050CB 
     FM250200 00000KT P6SM SCT150
       
KLFT 240520Z 2406/2506 VRB03KT P6SM VCTS SCT025 BKN050CB 
     TEMPO 2406/2408 VRB15G25KT OVC025CB 
     FM240800 00000KT P6SM BKN050 
     FM241600 12006KT P6SM VCTS SCT025 OVC050CB 
     TEMPO 2420/2424 P6SM TSRA OVC025CB
       
KLGA 240522Z 2406/2512 32006KT P6SM SKC 
     FM241300 35010KT P6SM SKC 
     FM241900 06006KT P6SM SKC 
     FM242300 17008KT P6SM SKC 
     FM250200 19005KT P6SM SKC
       
KLGB 240523Z 2406/2506 29007KT P6SM SCT015 
     FM240700 26006KT P6SM BKN025 
     FM241200 VRB03KT 6SM -DZ BR BKN015 OVC025 
     FM241700 VRB03KT P6SM SCT015 OVC025 
     FM242100 20006KT P6SM BKN035 
     FM250100 29010KT P6SM OVC025
       
KLGU 240544Z 2406/2506 VRB04KT P6SM FEW120 
     FM241800 21007KT P6SM SCT080 
     FM250300 VRB04KT P6SM SKC
       
KLIT 240520Z 2406/2506 VRB03KT 6SM BR BKN100 
     FM240800 00000KT 3SM BR SCT005 OVC100 
     TEMPO 2410/2413 1SM BR BKN005 
     FM241400 08004KT P6SM VCTS SCT025CB BKN100 
     FM250200 VRB03KT P6SM OVC100
       
KLLQ 240520Z 2406/2506 VRB02KT P6SM SCT100 BKN250 
     FM240800 00000KT 4SM BR SCT010 BKN100 
     TEMPO 2410/2413 3/4SM BR BKN004 
     FM241400 04004KT P6SM VCTS SCT025CB BKN100 
     FM250200 00000KT P6SM OVC050
       
KLMT 240530Z 2406/2506 17006KT P6SM BKN050 BKN090 
     FM250200 30011KT P6SM VCTS OVC100CB
       
KLND 240520Z 2406/2506 23007KT P6SM SCT090 BKN150 
     FM241200 VRB05KT P6SM SCT100 
     FM242100 28010KT P6SM SCT100 
     FM250200 25006KT P6SM FEW100
       
KLNK 240520Z 2406/2506 16008KT P6SM BKN250 
     FM241700 18013G22KT P6SM BKN120 
     FM242300 18013KT P6SM OVC100 
     PROB30 2500/2505 3SM TSRA OVC040CB 
     FM250500 18008KT P6SM BKN150
       
KLNS 240528Z 2406/2506 27004KT P6SM SKC 
     FM241330 35005KT P6SM SKC
       
KLOZ 240534Z 2406/2506 VRB03KT P6SM SCT250 
     FM240900 VRB03KT 3SM BR SCT250 
     FM241300 VRB05KT P6SM FEW250
       
KLRD 240533Z 2406/2506 12007KT P6SM SCT015 
     FM241000 13008KT P6SM BKN015 
     FM241500 14012KT P6SM SCT030
       
TAF KLRF 240700Z 2407/2513 32006KT 9999 FEW150 QNH3007INS 
     BECMG 2408/2409 35006KT 1600 BR BKN005 QNH3009INS 
     BECMG 2414/2415 34009KT 9999 NSW FEW025 BKN055 QNH2999INS 
     TEMPO 2418/2423 35025G35KT 8000 -TSRA BKN025CB 
     BECMG 2509/2510 VRB06KT 8000 BR FEW050 SCT120 QNH3000INS 
     BECMG 2511/2512 VRB06KT 9999 NSW FEW150 QNH2999INS TX31/2418Z TN20/2410Z
       
KLRU 240526Z 2406/2506 26006KT P6SM SKC 
     FM241700 16008KT P6SM SKC 
     FM242200 23009KT P6SM SKC
       
KLSE 240520Z 2406/2506 16005KT P6SM SCT200 
     FM241600 18012KT P6SM SCT050 SCT200
       
TAF AMD KLSF 240633Z 2406/2507 25006KT 9999 BKN005 OVC050 QNH3001INS 
     TEMPO 2406/2408 25012KT 8000 -TSRA BKN007 OVC025CB 
     BECMG 2408/2409 19006KT 6000 BR BKN007 OVC020 QNH3003INS 
     BECMG 2410/2411 10006KT 4800 BR OVC009 QNH3005INS 
     BECMG 2416/2417 02006KT 9999 NSW BKN015 OVC025 QNH3000INS 
     BECMG 2419/2420 20012KT 8000 -SHRA VCTS SCT030 BKN045CB QNH2999INS 
     BECMG 2501/2502 09006KT 8000 -SHRA BKN025 OVC040 QNH3001INS TX28/2421Z TN21/2411Z
       
TAF KLSV 240701Z 2407/2513 14009KT 9999 SKC QNH2985INS 
     TEMPO 2407/2409 15010G15KT 
     BECMG 2408/2409 14006KT 9999 SKC QNH2988INS 
     BECMG 2418/2419 16012G18KT 9999 SKC QNH2992INS 
     BECMG 2421/2422 17015G30KT 9999 SKC 510002 QNH2985INS 
     BECMG 2508/2509 15010G15KT 9999 SKC QNH2991INS TX34/2421Z TN19/2412Z
       
TAF KLTS 240100Z 2401/2507 13012KT 9999 SCT060 QNH2996INS 
     BECMG 2405/2406 15006KT 9999 BKN060 QNH3002INS 
     BECMG 2414/2415 18010G15KT 9999 BKN060 QNH2999INS 
     BECMG 2420/2421 16010G15KT 9999 SCT060 QNH2995INS 
     BECMG 2502/2503 16006KT 9999 SCT060 QNH2996INS TX34/2420Z TN19/2411Z
       
TAF KLUF 240403Z 2404/2510 VRB06KT 9999 SKC QNH2984INS 
     BECMG 2417/2418 22009KT 9999 SKC QNH2988INS 
     TEMPO 2418/2424 22012G18KT 
     BECMG 2504/2505 VRB06KT 9999 SKC QNH2991INS TX36/2423Z TN15/2413Z
       
KLVK 240522Z 2406/2506 27009KT P6SM OVC015 
     FM241900 25012KT P6SM SCT015 SCT050 
     FM250300 25008KT P6SM SCT012 BKN050
       
KLVM 240531Z 2406/2506 25017KT P6SM BKN070 
     FM241600 25019G28KT P6SM FEW070 BKN100 
     FM242100 26018G26KT P6SM VCTS SCT070CB BKN100 
     FM250300 25010KT P6SM VCSH BKN060
       
KLVS 240539Z 2406/2506 18010KT P6SM SCT025 
     FM241000 20006KT P6SM SCT100 
     FM241800 21013G22KT P6SM SKC
       
KLWB 240520Z 2406/2506 00000KT P6SM FEW250 
     FM241000 00000KT 3SM BR FEW250 
     TEMPO 2410/2412 3/4SM BR 
     FM241300 VRB02KT P6SM FEW250
       
KLWS 240538Z 2406/2506 15004KT P6SM SKC 
     FM240800 14004KT P6SM SCT100 SCT120 
     FM241900 34007KT P6SM SCT150 SCT200
       
KLWT 240542Z 2406/2506 VRB05KT P6SM SCT100 BKN180 
     FM241800 29013G21KT P6SM SCT070 SCT110 
     FM250200 25009KT P6SM SKC
       
KLYH 240615Z 2406/2506 06003KT P6SM OVC040 
     FM241200 07004KT P6SM FEW250